sensor_id;sensor_type;location;lat;lon;timestamp;pressure;altitude;pressure_sealevel;temperature;humidity
35577;BME280;21680;52.400;16.920;2023-09-30T00:00:14;100738.08;;;20.27;67.01
35577;BME280;21680;52.400;16.920;2023-09-30T00:02:40;100740.00;;;20.26;66.90
35577;BME280;21680;52.400;16.920;2023-09-30T00:05:06;100739.73;;;20.25;66.91
35577;BME280;21680;52.400;16.920;2023-09-30T00:07:32;100741.62;;;20.24;66.99
35577;BME280;21680;52.400;16.920;2023-09-30T00:09:58;100740.98;;;20.23;66.82
35577;BME280;21680;52.400;16.920;2023-09-30T00:12:24;100741.62;;;20.24;66.91
35577;BME280;21680;52.400;16.920;2023-09-30T00:14:49;100741.24;;;20.24;66.90
35577;BME280;21680;52.400;16.920;2023-09-30T00:17:14;100745.04;;;20.22;66.80
35577;BME280;21680;52.400;16.920;2023-09-30T00:19:40;100745.21;;;20.20;66.81
35577;BME280;21680;52.400;16.920;2023-09-30T00:22:06;100747.71;;;20.18;66.79
35577;BME280;21680;52.400;16.920;2023-09-30T00:24:31;100746.58;;;20.17;66.78
35577;BME280;21680;52.400;16.920;2023-09-30T00:26:56;100751.13;;;20.17;66.86
35577;BME280;21680;52.400;16.920;2023-09-30T00:29:21;100748.41;;;20.17;66.90
35577;BME280;21680;52.400;16.920;2023-09-30T00:31:47;100745.27;;;20.15;66.87
35577;BME280;21680;52.400;16.920;2023-09-30T00:34:12;100744.29;;;20.14;66.98
35577;BME280;21680;52.400;16.920;2023-09-30T00:36:38;100748.27;;;20.12;66.98
35577;BME280;21680;52.400;16.920;2023-09-30T00:39:03;100753.83;;;20.08;66.91
35577;BME280;21680;52.400;16.920;2023-09-30T00:41:29;100751.36;;;20.05;67.03
35577;BME280;21680;52.400;16.920;2023-09-30T00:43:54;100752.98;;;20.03;67.01
35577;BME280;21680;52.400;16.920;2023-09-30T00:46:30;100754.41;;;20.01;67.07
35577;BME280;21680;52.400;16.920;2023-09-30T00:48:57;100754.05;;;19.98;67.09
35577;BME280;21680;52.400;16.920;2023-09-30T00:51:23;100748.30;;;19.96;67.19
35577;BME280;21680;52.400;16.920;2023-09-30T00:53:50;100749.14;;;19.92;67.22
35577;BME280;21680;52.400;16.920;2023-09-30T00:56:17;100755.09;;;19.90;67.39
35577;BME280;21680;52.400;16.920;2023-09-30T00:58:45;100755.17;;;19.87;67.57
35577;BME280;21680;52.400;16.920;2023-09-30T01:01:11;100760.98;;;19.85;67.60
35577;BME280;21680;52.400;16.920;2023-09-30T01:03:37;100766.67;;;19.80;67.76
35577;BME280;21680;52.400;16.920;2023-09-30T01:06:02;100768.08;;;19.78;67.90
35577;BME280;21680;52.400;16.920;2023-09-30T01:08:28;100770.96;;;19.75;68.01
35577;BME280;21680;52.400;16.920;2023-09-30T01:10:54;100769.28;;;19.74;68.23
35577;BME280;21680;52.400;16.920;2023-09-30T01:13:20;100770.13;;;19.72;68.31
35577;BME280;21680;52.400;16.920;2023-09-30T01:15:45;100771.65;;;19.71;68.47
35577;BME280;21680;52.400;16.920;2023-09-30T01:18:12;100776.64;;;19.70;68.46
35577;BME280;21680;52.400;16.920;2023-09-30T01:20:37;100783.17;;;19.70;68.70
35577;BME280;21680;52.400;16.920;2023-09-30T01:23:03;100789.85;;;19.71;68.86
35577;BME280;21680;52.400;16.920;2023-09-30T01:25:29;100788.39;;;19.71;69.20
35577;BME280;21680;52.400;16.920;2023-09-30T01:27:55;100796.94;;;19.70;69.29
35577;BME280;21680;52.400;16.920;2023-09-30T01:30:20;100795.09;;;19.68;69.40
35577;BME280;21680;52.400;16.920;2023-09-30T01:32:48;100791.08;;;19.66;69.57
35577;BME280;21680;52.400;16.920;2023-09-30T01:35:13;100791.30;;;19.64;69.77
35577;BME280;21680;52.400;16.920;2023-09-30T01:37:39;100792.98;;;19.61;69.80
35577;BME280;21680;52.400;16.920;2023-09-30T01:40:04;100797.22;;;19.58;70.13
35577;BME280;21680;52.400;16.920;2023-09-30T01:42:33;100795.33;;;19.54;70.34
35577;BME280;21680;52.400;16.920;2023-09-30T01:44:58;100799.62;;;19.53;70.72
35577;BME280;21680;52.400;16.920;2023-09-30T01:47:23;100807.42;;;19.50;70.95
35577;BME280;21680;52.400;16.920;2023-09-30T01:49:48;100810.38;;;19.46;71.23
35577;BME280;21680;52.400;16.920;2023-09-30T01:52:14;100817.36;;;19.45;71.47
35577;BME280;21680;52.400;16.920;2023-09-30T01:54:39;100814.48;;;19.43;71.67
35577;BME280;21680;52.400;16.920;2023-09-30T01:57:05;100814.41;;;19.39;72.02
35577;BME280;21680;52.400;16.920;2023-09-30T01:59:30;100823.36;;;19.36;72.37
35577;BME280;21680;52.400;16.920;2023-09-30T02:01:55;100830.41;;;19.31;72.76
35577;BME280;21680;52.400;16.920;2023-09-30T02:04:21;100837.27;;;19.27;73.54
35577;BME280;21680;52.400;16.920;2023-09-30T02:06:46;100836.03;;;19.22;74.14
35577;BME280;21680;52.400;16.920;2023-09-30T02:09:11;100837.16;;;19.19;74.32
35577;BME280;21680;52.400;16.920;2023-09-30T02:11:38;100836.98;;;19.17;74.71
35577;BME280;21680;52.400;16.920;2023-09-30T02:14:03;100837.77;;;19.13;75.38
35577;BME280;21680;52.400;16.920;2023-09-30T02:16:31;100840.35;;;19.10;75.89
35577;BME280;21680;52.400;16.920;2023-09-30T02:18:56;100838.86;;;19.06;75.75
35577;BME280;21680;52.400;16.920;2023-09-30T02:21:21;100838.02;;;19.03;75.77
35577;BME280;21680;52.400;16.920;2023-09-30T02:23:47;100849.95;;;19.01;75.79
35577;BME280;21680;52.400;16.920;2023-09-30T02:26:16;100855.47;;;19.00;76.66
35577;BME280;21680;52.400;16.920;2023-09-30T02:28:42;100863.83;;;18.97;77.03
35577;BME280;21680;52.400;16.920;2023-09-30T02:31:08;100867.92;;;18.95;77.68
35577;BME280;21680;52.400;16.920;2023-09-30T02:33:33;100870.27;;;18.93;77.62
35577;BME280;21680;52.400;16.920;2023-09-30T02:36:03;100877.23;;;18.92;77.69
35577;BME280;21680;52.400;16.920;2023-09-30T02:38:30;100883.69;;;18.91;77.84
35577;BME280;21680;52.400;16.920;2023-09-30T02:40:56;100886.78;;;18.88;78.73
35577;BME280;21680;52.400;16.920;2023-09-30T02:43:21;100887.30;;;18.83;79.09
35577;BME280;21680;52.400;16.920;2023-09-30T02:45:47;100892.27;;;18.82;79.20
35577;BME280;21680;52.400;16.920;2023-09-30T02:48:13;100893.05;;;18.81;79.13
35577;BME280;21680;52.400;16.920;2023-09-30T02:50:41;100893.65;;;18.81;79.46
35577;BME280;21680;52.400;16.920;2023-09-30T02:53:09;100892.02;;;18.78;79.51
35577;BME280;21680;52.400;16.920;2023-09-30T02:55:34;100892.81;;;18.77;79.64
35577;BME280;21680;52.400;16.920;2023-09-30T02:58:00;100895.64;;;18.76;79.67
35577;BME280;21680;52.400;16.920;2023-09-30T03:00:26;100896.86;;;18.74;79.88
35577;BME280;21680;52.400;16.920;2023-09-30T03:02:52;100880.40;;;18.72;80.33
35577;BME280;21680;52.400;16.920;2023-09-30T03:05:19;100887.59;;;18.70;80.52
35577;BME280;21680;52.400;16.920;2023-09-30T03:07:45;100886.95;;;18.71;80.53
35577;BME280;21680;52.400;16.920;2023-09-30T03:10:11;100897.73;;;18.72;80.37
35577;BME280;21680;52.400;16.920;2023-09-30T03:12:38;100893.86;;;18.71;80.46
35577;BME280;21680;52.400;16.920;2023-09-30T03:15:04;100901.91;;;18.69;80.61
35577;BME280;21680;52.400;16.920;2023-09-30T03:17:32;100907.13;;;18.67;80.44
35577;BME280;21680;52.400;16.920;2023-09-30T03:19:58;100900.98;;;18.65;80.34
35577;BME280;21680;52.400;16.920;2023-09-30T03:22:25;100907.05;;;18.64;80.27
35577;BME280;21680;52.400;16.920;2023-09-30T03:24:52;100905.24;;;18.58;80.42
35577;BME280;21680;52.400;16.920;2023-09-30T03:27:19;100906.03;;;18.52;80.74
35577;BME280;21680;52.400;16.920;2023-09-30T03:29:45;100912.84;;;18.46;80.94
35577;BME280;21680;52.400;16.920;2023-09-30T03:32:10;100910.64;;;18.41;81.20
35577;BME280;21680;52.400;16.920;2023-09-30T03:34:35;100914.11;;;18.33;81.59
35577;BME280;21680;52.400;16.920;2023-09-30T03:37:09;100916.13;;;18.25;81.77
35577;BME280;21680;52.400;16.920;2023-09-30T03:39:35;100922.83;;;18.20;81.93
35577;BME280;21680;52.400;16.920;2023-09-30T03:42:00;100922.41;;;18.16;81.81
35577;BME280;21680;52.400;16.920;2023-09-30T03:44:26;100921.13;;;18.11;81.84
35577;BME280;21680;52.400;16.920;2023-09-30T03:46:51;100921.67;;;18.09;82.00
35577;BME280;21680;52.400;16.920;2023-09-30T03:49:18;100925.99;;;18.06;82.21
35577;BME280;21680;52.400;16.920;2023-09-30T03:51:45;100924.56;;;18.04;82.05
35577;BME280;21680;52.400;16.920;2023-09-30T03:54:11;100926.16;;;18.02;82.14
35577;BME280;21680;52.400;16.920;2023-09-30T03:56:36;100935.59;;;18.01;82.47
35577;BME280;21680;52.400;16.920;2023-09-30T03:59:04;100939.94;;;17.99;82.52
35577;BME280;21680;52.400;16.920;2023-09-30T04:01:29;100945.68;;;17.96;82.69
35577;BME280;21680;52.400;16.920;2023-09-30T04:03:56;100953.27;;;17.94;83.06
35577;BME280;21680;52.400;16.920;2023-09-30T04:06:22;100969.92;;;17.89;83.16
35577;BME280;21680;52.400;16.920;2023-09-30T04:08:47;100971.27;;;17.82;82.95
35577;BME280;21680;52.400;16.920;2023-09-30T04:11:12;100974.30;;;17.75;83.36
35577;BME280;21680;52.400;16.920;2023-09-30T04:13:43;100979.17;;;17.67;83.13
35577;BME280;21680;52.400;16.920;2023-09-30T04:16:09;100985.48;;;17.61;83.01
35577;BME280;21680;52.400;16.920;2023-09-30T04:18:34;100994.30;;;17.56;82.88
35577;BME280;21680;52.400;16.920;2023-09-30T04:20:59;100995.41;;;17.50;83.10
35577;BME280;21680;52.400;16.920;2023-09-30T04:23:25;101010.98;;;17.42;83.28
35577;BME280;21680;52.400;16.920;2023-09-30T04:25:50;101019.33;;;17.31;83.49
35577;BME280;21680;52.400;16.920;2023-09-30T04:28:16;101023.27;;;17.17;83.90
35577;BME280;21680;52.400;16.920;2023-09-30T04:30:47;101027.88;;;17.07;84.05
35577;BME280;21680;52.400;16.920;2023-09-30T04:33:13;101037.77;;;16.99;84.39
35577;BME280;21680;52.400;16.920;2023-09-30T04:35:39;101050.02;;;16.92;84.41
35577;BME280;21680;52.400;16.920;2023-09-30T04:38:04;101059.34;;;16.84;84.82
35577;BME280;21680;52.400;16.920;2023-09-30T04:40:30;101064.33;;;16.70;86.32
35577;BME280;21680;52.400;16.920;2023-09-30T04:42:55;101072.28;;;16.46;86.26
35577;BME280;21680;52.400;16.920;2023-09-30T04:45:27;101085.25;;;16.32;86.58
35577;BME280;21680;52.400;16.920;2023-09-30T04:47:55;101089.80;;;16.16;86.67
35577;BME280;21680;52.400;16.920;2023-09-30T04:50:23;101095.49;;;15.99;87.52
35577;BME280;21680;52.400;16.920;2023-09-30T04:52:53;101093.65;;;15.84;87.88
35577;BME280;21680;52.400;16.920;2023-09-30T04:55:19;101092.13;;;15.74;87.95
35577;BME280;21680;52.400;16.920;2023-09-30T04:57:45;101093.13;;;15.69;88.61
35577;BME280;21680;52.400;16.920;2023-09-30T05:00:17;101097.21;;;15.64;88.15
35577;BME280;21680;52.400;16.920;2023-09-30T05:02:44;101111.75;;;15.62;88.11
35577;BME280;21680;52.400;16.920;2023-09-30T05:05:10;101114.23;;;15.53;88.67
35577;BME280;21680;52.400;16.920;2023-09-30T05:07:35;101117.64;;;15.40;88.53
35577;BME280;21680;52.400;16.920;2023-09-30T05:10:01;101124.95;;;15.35;88.37
35577;BME280;21680;52.400;16.920;2023-09-30T05:12:30;101132.63;;;15.30;88.43
35577;BME280;21680;52.400;16.920;2023-09-30T05:14:55;101138.02;;;15.23;89.19
35577;BME280;21680;52.400;16.920;2023-09-30T05:17:20;101148.23;;;15.14;90.54
35577;BME280;21680;52.400;16.920;2023-09-30T05:19:47;101154.60;;;15.03;91.15
35577;BME280;21680;52.400;16.920;2023-09-30T05:22:12;101152.60;;;14.87;91.30
35577;BME280;21680;52.400;16.920;2023-09-30T05:24:37;101159.15;;;14.75;91.19
35577;BME280;21680;52.400;16.920;2023-09-30T05:27:02;101165.94;;;14.63;91.64
35577;BME280;21680;52.400;16.920;2023-09-30T05:29:29;101167.92;;;14.48;91.34
35577;BME280;21680;52.400;16.920;2023-09-30T05:31:54;101181.25;;;14.37;91.19
35577;BME280;21680;52.400;16.920;2023-09-30T05:34:19;101188.27;;;14.22;90.95
35577;BME280;21680;52.400;16.920;2023-09-30T05:36:45;101187.36;;;14.12;90.79
35577;BME280;21680;52.400;16.920;2023-09-30T05:39:10;101193.45;;;14.05;90.71
35577;BME280;21680;52.400;16.920;2023-09-30T05:41:35;101197.03;;;13.98;90.84
35577;BME280;21680;52.400;16.920;2023-09-30T05:44:02;101206.77;;;13.93;91.11
35577;BME280;21680;52.400;16.920;2023-09-30T05:46:30;101208.20;;;13.89;91.18
35577;BME280;21680;52.400;16.920;2023-09-30T05:48:55;101207.20;;;13.88;91.14
35577;BME280;21680;52.400;16.920;2023-09-30T05:51:21;101214.38;;;13.88;91.42
35577;BME280;21680;52.400;16.920;2023-09-30T05:53:46;101212.80;;;13.87;91.59
35577;BME280;21680;52.400;16.920;2023-09-30T05:56:13;101211.36;;;13.87;91.47
35577;BME280;21680;52.400;16.920;2023-09-30T05:58:43;101209.36;;;13.88;91.57
35577;BME280;21680;52.400;16.920;2023-09-30T06:01:08;101208.48;;;13.88;91.42
35577;BME280;21680;52.400;16.920;2023-09-30T06:03:37;101223.48;;;13.89;91.36
35577;BME280;21680;52.400;16.920;2023-09-30T06:06:11;101224.48;;;13.91;91.04
35577;BME280;21680;52.400;16.920;2023-09-30T06:08:38;101227.88;;;13.91;90.92
35577;BME280;21680;52.400;16.920;2023-09-30T06:11:03;101225.64;;;13.89;90.64
35577;BME280;21680;52.400;16.920;2023-09-30T06:13:28;101232.77;;;13.87;90.51
35577;BME280;21680;52.400;16.920;2023-09-30T06:15:57;101229.53;;;13.83;90.45
35577;BME280;21680;52.400;16.920;2023-09-30T06:18:22;101234.54;;;13.80;90.08
35577;BME280;21680;52.400;16.920;2023-09-30T06:20:48;101228.37;;;13.77;90.00
35577;BME280;21680;52.400;16.920;2023-09-30T06:23:14;101234.08;;;13.75;89.67
35577;BME280;21680;52.400;16.920;2023-09-30T06:25:39;101233.97;;;13.73;89.51
35577;BME280;21680;52.400;16.920;2023-09-30T06:28:05;101239.95;;;13.72;89.37
35577;BME280;21680;52.400;16.920;2023-09-30T06:30:30;101244.97;;;13.72;89.23
35577;BME280;21680;52.400;16.920;2023-09-30T06:32:56;101250.95;;;13.71;89.06
35577;BME280;21680;52.400;16.920;2023-09-30T06:35:22;101261.21;;;13.71;88.89
35577;BME280;21680;52.400;16.920;2023-09-30T06:37:48;101266.91;;;13.72;88.72
35577;BME280;21680;52.400;16.920;2023-09-30T06:40:13;101272.44;;;13.73;88.52
35577;BME280;21680;52.400;16.920;2023-09-30T06:42:39;101282.25;;;13.74;88.23
35577;BME280;21680;52.400;16.920;2023-09-30T06:45:05;101297.10;;;13.75;88.12
35577;BME280;21680;52.400;16.920;2023-09-30T06:47:35;101294.56;;;13.76;87.88
35577;BME280;21680;52.400;16.920;2023-09-30T06:50:03;101292.81;;;13.78;87.74
35577;BME280;21680;52.400;16.920;2023-09-30T06:52:33;101294.73;;;13.80;87.41
35577;BME280;21680;52.400;16.920;2023-09-30T06:54:58;101297.23;;;13.80;87.36
35577;BME280;21680;52.400;16.920;2023-09-30T06:57:23;101298.27;;;13.84;87.26
35577;BME280;21680;52.400;16.920;2023-09-30T06:59:49;101298.77;;;13.89;87.13
35577;BME280;21680;52.400;16.920;2023-09-30T07:02:15;101296.35;;;13.91;86.99
35577;BME280;21680;52.400;16.920;2023-09-30T07:04:40;101288.62;;;13.95;86.78
35577;BME280;21680;52.400;16.920;2023-09-30T07:07:06;101292.60;;;13.98;86.67
35577;BME280;21680;52.400;16.920;2023-09-30T07:09:31;101299.70;;;14.00;86.55
35577;BME280;21680;52.400;16.920;2023-09-30T07:11:56;101303.25;;;14.01;86.39
35577;BME280;21680;52.400;16.920;2023-09-30T07:14:22;101306.54;;;14.04;86.25
35577;BME280;21680;52.400;16.920;2023-09-30T07:16:47;101307.19;;;14.06;86.06
35577;BME280;21680;52.400;16.920;2023-09-30T07:19:12;101306.00;;;14.08;85.96
35577;BME280;21680;52.400;16.920;2023-09-30T07:21:38;101302.21;;;14.12;85.81
35577;BME280;21680;52.400;16.920;2023-09-30T07:24:04;101307.16;;;14.17;85.63
35577;BME280;21680;52.400;16.920;2023-09-30T07:26:29;101304.70;;;14.23;85.62
35577;BME280;21680;52.400;16.920;2023-09-30T07:28:54;101305.45;;;14.30;85.49
35577;BME280;21680;52.400;16.920;2023-09-30T07:31:21;101318.42;;;14.37;85.37
35577;BME280;21680;52.400;16.920;2023-09-30T07:33:48;101326.83;;;14.46;85.32
35577;BME280;21680;52.400;16.920;2023-09-30T07:36:13;101337.98;;;14.57;85.18
35577;BME280;21680;52.400;16.920;2023-09-30T07:38:39;101344.63;;;14.65;84.97
35577;BME280;21680;52.400;16.920;2023-09-30T07:41:05;101349.50;;;14.75;84.91
35577;BME280;21680;52.400;16.920;2023-09-30T07:43:30;101346.31;;;14.81;84.52
35577;BME280;21680;52.400;16.920;2023-09-30T07:45:56;101348.40;;;14.86;84.34
35577;BME280;21680;52.400;16.920;2023-09-30T07:48:21;101347.65;;;14.94;84.35
35577;BME280;21680;52.400;16.920;2023-09-30T07:50:46;101344.41;;;15.01;84.09
35577;BME280;21680;52.400;16.920;2023-09-30T07:53:12;101359.05;;;15.07;83.92
35577;BME280;21680;52.400;16.920;2023-09-30T07:55:38;101363.39;;;15.10;83.68
35577;BME280;21680;52.400;16.920;2023-09-30T07:58:04;101360.27;;;15.11;83.38
35577;BME280;21680;52.400;16.920;2023-09-30T08:00:30;101363.00;;;15.14;83.17
35577;BME280;21680;52.400;16.920;2023-09-30T08:02:55;101365.41;;;15.20;82.92
35577;BME280;21680;52.400;16.920;2023-09-30T08:05:20;101364.25;;;15.25;82.87
35577;BME280;21680;52.400;16.920;2023-09-30T08:07:45;101372.53;;;15.32;82.73
35577;BME280;21680;52.400;16.920;2023-09-30T08:10:11;101384.42;;;15.39;82.49
35577;BME280;21680;52.400;16.920;2023-09-30T08:12:42;101380.50;;;15.38;82.04
35577;BME280;21680;52.400;16.920;2023-09-30T08:15:08;101385.96;;;15.34;81.54
35577;BME280;21680;52.400;16.920;2023-09-30T08:17:36;101385.66;;;15.29;81.10
35577;BME280;21680;52.400;16.920;2023-09-30T08:20:02;101390.16;;;15.29;80.56
35577;BME280;21680;52.400;16.920;2023-09-30T08:22:29;101393.20;;;15.29;80.47
35577;BME280;21680;52.400;16.920;2023-09-30T08:24:55;101390.65;;;15.33;80.42
35577;BME280;21680;52.400;16.920;2023-09-30T08:27:21;101400.24;;;15.39;80.13
35577;BME280;21680;52.400;16.920;2023-09-30T08:29:46;101396.95;;;15.33;79.42
35577;BME280;21680;52.400;16.920;2023-09-30T08:32:12;101404.17;;;15.29;79.40
35577;BME280;21680;52.400;16.920;2023-09-30T08:34:37;101405.33;;;15.32;79.05
35577;BME280;21680;52.400;16.920;2023-09-30T08:37:02;101404.70;;;15.37;78.91
35577;BME280;21680;52.400;16.920;2023-09-30T08:39:27;101406.34;;;15.43;78.75
35577;BME280;21680;52.400;16.920;2023-09-30T08:41:55;101409.73;;;15.54;78.46
35577;BME280;21680;52.400;16.920;2023-09-30T08:44:20;101422.08;;;15.63;77.83
35577;BME280;21680;52.400;16.920;2023-09-30T08:46:46;101422.90;;;15.58;77.03
35577;BME280;21680;52.400;16.920;2023-09-30T08:49:13;101421.77;;;15.55;77.29
35577;BME280;21680;52.400;16.920;2023-09-30T08:51:39;101421.63;;;15.58;76.93
35577;BME280;21680;52.400;16.920;2023-09-30T08:54:04;101421.56;;;15.59;76.58
35577;BME280;21680;52.400;16.920;2023-09-30T08:56:31;101425.02;;;15.62;76.53
35577;BME280;21680;52.400;16.920;2023-09-30T08:59:02;101426.98;;;15.69;76.40
35577;BME280;21680;52.400;16.920;2023-09-30T09:01:28;101427.56;;;15.72;75.93
35577;BME280;21680;52.400;16.920;2023-09-30T09:03:55;101428.01;;;15.73;75.78
35577;BME280;21680;52.400;16.920;2023-09-30T09:06:21;101423.44;;;15.78;75.80
35577;BME280;21680;52.400;16.920;2023-09-30T09:08:47;101422.56;;;15.84;75.63
35577;BME280;21680;52.400;16.920;2023-09-30T09:11:13;101424.81;;;15.89;75.24
35577;BME280;21680;52.400;16.920;2023-09-30T09:13:46;101427.58;;;16.02;74.61
35577;BME280;21680;52.400;16.920;2023-09-30T09:16:14;101427.16;;;16.13;74.57
35577;BME280;21680;52.400;16.920;2023-09-30T09:18:40;101429.75;;;16.22;73.98
35577;BME280;21680;52.400;16.920;2023-09-30T09:21:12;101433.83;;;16.23;73.60
35577;BME280;21680;52.400;16.920;2023-09-30T09:23:45;101435.93;;;16.24;73.32
35577;BME280;21680;52.400;16.920;2023-09-30T09:26:12;101436.78;;;16.25;72.91
35577;BME280;21680;52.400;16.920;2023-09-30T09:28:39;101435.77;;;16.20;72.46
35577;BME280;21680;52.400;16.920;2023-09-30T09:31:25;101437.17;;;16.21;72.39
35577;BME280;21680;52.400;16.920;2023-09-30T09:33:51;101440.08;;;16.27;71.38
35577;BME280;21680;52.400;16.920;2023-09-30T09:36:18;101439.56;;;16.30;71.44
35577;BME280;21680;52.400;16.920;2023-09-30T09:38:49;101437.25;;;16.40;70.94
35577;BME280;21680;52.400;16.920;2023-09-30T09:41:15;101442.28;;;16.53;70.74
35577;BME280;21680;52.400;16.920;2023-09-30T09:43:43;101440.14;;;16.69;70.52
35577;BME280;21680;52.400;16.920;2023-09-30T09:46:09;101442.36;;;16.81;70.34
35577;BME280;21680;52.400;16.920;2023-09-30T09:48:36;101446.98;;;16.85;69.61
35577;BME280;21680;52.400;16.920;2023-09-30T09:51:01;101457.14;;;16.91;69.31
35577;BME280;21680;52.400;16.920;2023-09-30T09:53:29;101459.64;;;16.88;68.43
35577;BME280;21680;52.400;16.920;2023-09-30T09:55:57;101461.84;;;16.71;67.46
35577;BME280;21680;52.400;16.920;2023-09-30T09:58:25;101455.60;;;16.60;67.53
35577;BME280;21680;52.400;16.920;2023-09-30T10:00:52;101456.04;;;16.62;67.86
35577;BME280;21680;52.400;16.920;2023-09-30T10:03:18;101459.91;;;16.80;67.96
35577;BME280;21680;52.400;16.920;2023-09-30T10:05:44;101460.34;;;16.92;67.26
35577;BME280;21680;52.400;16.920;2023-09-30T10:08:13;101455.51;;;16.98;66.97
35577;BME280;21680;52.400;16.920;2023-09-30T10:10:39;101456.70;;;17.05;66.96
35577;BME280;21680;52.400;16.920;2023-09-30T10:13:05;101455.92;;;17.12;66.40
35577;BME280;21680;52.400;16.920;2023-09-30T10:15:34;101455.00;;;17.18;65.99
35577;BME280;21680;52.400;16.920;2023-09-30T10:18:11;101455.52;;;17.31;65.90
35577;BME280;21680;52.400;16.920;2023-09-30T10:20:38;101464.04;;;17.40;65.14
35577;BME280;21680;52.400;16.920;2023-09-30T10:23:29;101457.71;;;17.43;65.17
35577;BME280;21680;52.400;16.920;2023-09-30T10:28:34;101452.57;;;17.50;64.19
35577;BME280;21680;52.400;16.920;2023-09-30T10:31:13;101453.98;;;17.48;64.05
35577;BME280;21680;52.400;16.920;2023-09-30T10:36:30;101454.19;;;17.41;63.21
35577;BME280;21680;52.400;16.920;2023-09-30T10:38:56;101452.45;;;17.40;63.25
35577;BME280;21680;52.400;16.920;2023-09-30T10:49:49;101440.52;;;17.65;62.26
35577;BME280;21680;52.400;16.920;2023-09-30T10:52:22;101444.68;;;17.74;62.30
35577;BME280;21680;52.400;16.920;2023-09-30T10:54:50;101445.88;;;17.78;61.81
35577;BME280;21680;52.400;16.920;2023-09-30T10:57:29;101444.85;;;17.71;61.18
35577;BME280;21680;52.400;16.920;2023-09-30T11:00:10;101444.82;;;17.62;60.83
35577;BME280;21680;52.400;16.920;2023-09-30T11:02:48;101446.39;;;17.63;60.88
35577;BME280;21680;52.400;16.920;2023-09-30T11:05:14;101446.89;;;17.64;60.64
35577;BME280;21680;52.400;16.920;2023-09-30T11:07:41;101445.03;;;17.65;60.70
35577;BME280;21680;52.400;16.920;2023-09-30T11:10:07;101449.88;;;17.65;60.41
35577;BME280;21680;52.400;16.920;2023-09-30T11:12:33;101446.50;;;17.64;60.17
35577;BME280;21680;52.400;16.920;2023-09-30T11:15:01;101451.45;;;17.67;60.00
35577;BME280;21680;52.400;16.920;2023-09-30T11:17:27;101452.06;;;17.68;59.88
35577;BME280;21680;52.400;16.920;2023-09-30T11:19:52;101454.07;;;17.71;59.70
35577;BME280;21680;52.400;16.920;2023-09-30T11:22:18;101458.70;;;17.78;59.41
35577;BME280;21680;52.400;16.920;2023-09-30T11:24:43;101459.84;;;17.83;59.19
35577;BME280;21680;52.400;16.920;2023-09-30T11:27:11;101454.21;;;17.81;58.25
35577;BME280;21680;52.400;16.920;2023-09-30T11:29:36;101454.52;;;17.70;57.66
35577;BME280;21680;52.400;16.920;2023-09-30T11:32:01;101453.27;;;17.63;58.02
35577;BME280;21680;52.400;16.920;2023-09-30T11:34:35;101447.61;;;17.61;57.84
35577;BME280;21680;52.400;16.920;2023-09-30T11:37:01;101446.53;;;17.61;58.05
35577;BME280;21680;52.400;16.920;2023-09-30T11:39:28;101441.72;;;17.63;57.96
35577;BME280;21680;52.400;16.920;2023-09-30T11:41:55;101442.78;;;17.57;57.71
35577;BME280;21680;52.400;16.920;2023-09-30T11:44:22;101455.49;;;17.50;57.80
35577;BME280;21680;52.400;16.920;2023-09-30T11:47:00;101451.14;;;17.44;57.61
35577;BME280;21680;52.400;16.920;2023-09-30T11:49:31;101447.04;;;17.40;57.58
35577;BME280;21680;52.400;16.920;2023-09-30T11:52:03;101447.20;;;17.43;57.22
35577;BME280;21680;52.400;16.920;2023-09-30T11:54:32;101446.27;;;17.44;56.90
35577;BME280;21680;52.400;16.920;2023-09-30T11:56:59;101453.94;;;17.40;56.55
35577;BME280;21680;52.400;16.920;2023-09-30T11:59:25;101452.06;;;17.41;56.50
35577;BME280;21680;52.400;16.920;2023-09-30T12:01:51;101451.74;;;17.46;56.45
35577;BME280;21680;52.400;16.920;2023-09-30T12:04:17;101449.13;;;17.51;56.71
35577;BME280;21680;52.400;16.920;2023-09-30T12:06:45;101449.09;;;17.55;56.47
35577;BME280;21680;52.400;16.920;2023-09-30T12:09:11;101451.36;;;17.59;56.82
35577;BME280;21680;52.400;16.920;2023-09-30T12:11:41;101456.62;;;17.77;56.68
35577;BME280;21680;52.400;16.920;2023-09-30T12:14:09;101444.88;;;17.95;56.67
35577;BME280;21680;52.400;16.920;2023-09-30T12:16:35;101442.91;;;18.17;56.82
35577;BME280;21680;52.400;16.920;2023-09-30T12:19:00;101453.64;;;18.27;55.86
35577;BME280;21680;52.400;16.920;2023-09-30T12:21:25;101454.98;;;18.21;55.85
35577;BME280;21680;52.400;16.920;2023-09-30T12:23:50;101464.02;;;18.12;55.67
35577;BME280;21680;52.400;16.920;2023-09-30T12:26:16;101462.95;;;18.04;55.50
35577;BME280;21680;52.400;16.920;2023-09-30T12:28:45;101458.22;;;17.95;55.13
35577;BME280;21680;52.400;16.920;2023-09-30T12:31:10;101457.25;;;17.93;55.37
35577;BME280;21680;52.400;16.920;2023-09-30T12:33:36;101459.01;;;17.91;55.48
35577;BME280;21680;52.400;16.920;2023-09-30T12:36:02;101460.17;;;17.93;55.74
35577;BME280;21680;52.400;16.920;2023-09-30T12:38:27;101460.13;;;17.99;55.87
35577;BME280;21680;52.400;16.920;2023-09-30T12:40:56;101462.06;;;18.06;55.96
35577;BME280;21680;52.400;16.920;2023-09-30T12:43:22;101461.33;;;18.06;55.79
35577;BME280;21680;52.400;16.920;2023-09-30T12:45:47;101463.66;;;18.04;55.67
35577;BME280;21680;52.400;16.920;2023-09-30T12:48:14;101467.16;;;18.02;55.66
35577;BME280;21680;52.400;16.920;2023-09-30T12:50:41;101472.27;;;18.19;55.85